createdAt,value
2022-08-20T00:02:10.369Z,15.07
2022-08-20T00:04:39.475Z,14.00
2022-08-20T00:07:07.343Z,14.97
2022-08-20T00:09:36.400Z,14.30
2022-08-20T00:12:06.280Z,21.03
2022-08-20T00:14:35.202Z,15.83
2022-08-20T00:17:03.919Z,15.70
2022-08-20T00:19:31.047Z,16.23
2022-08-20T00:21:58.651Z,16.77
2022-08-20T00:24:26.344Z,17.30
2022-08-20T00:26:53.542Z,18.20
2022-08-20T00:29:22.409Z,17.40
2022-08-20T00:31:50.709Z,18.07
2022-08-20T00:34:18.154Z,18.60
2022-08-20T00:36:45.263Z,19.33
2022-08-20T00:39:12.398Z,18.47
2022-08-20T00:41:39.561Z,20.17
2022-08-20T00:44:21.971Z,19.37
2022-08-20T00:46:50.728Z,19.77
2022-08-20T00:49:29.151Z,20.33
2022-08-20T00:52:16.640Z,19.30
2022-08-20T00:54:57.448Z,25.03
2022-08-20T00:57:43.805Z,25.03
2022-08-20T01:00:34.683Z,20.23
2022-08-20T01:03:02.234Z,21.30
2022-08-20T01:05:30.240Z,21.80
2022-08-20T01:07:57.954Z,21.03
2022-08-20T01:10:30.105Z,18.67
2022-08-20T01:12:59.854Z,19.50
2022-08-20T01:15:31.880Z,17.50
2022-08-20T01:18:01.961Z,17.57
2022-08-20T01:20:38.741Z,16.97
2022-08-20T01:23:30.438Z,17.07
2022-08-20T01:26:06.321Z,15.77
2022-08-20T01:28:46.826Z,16.33
2022-08-20T01:31:25.814Z,20.13
2022-08-20T01:33:56.383Z,14.80
2022-08-20T01:36:46.319Z,17.60
2022-08-20T01:39:19.138Z,17.30
2022-08-20T01:42:07.767Z,16.43
2022-08-20T01:44:38.014Z,15.77
2022-08-20T01:47:24.753Z,18.70
2022-08-20T01:49:59.816Z,15.27
2022-08-20T01:53:19.301Z,13.60
2022-08-20T01:55:47.213Z,11.83
2022-08-20T01:58:14.539Z,12.53
2022-08-20T02:00:42.221Z,14.17
2022-08-20T02:03:09.440Z,10.27
2022-08-20T02:05:36.686Z,9.67
2022-08-20T02:08:05.358Z,11.87
2022-08-20T02:10:33.379Z,11.80
2022-08-20T02:13:02.285Z,11.83
2022-08-20T02:15:34.954Z,12.10
2022-08-20T02:18:12.865Z,11.20
2022-08-20T02:20:41.484Z,12.97
2022-08-20T02:23:11.928Z,13.30
2022-08-20T02:25:41.713Z,14.40
2022-08-20T02:28:14.111Z,12.93
2022-08-20T02:30:48.085Z,15.43
2022-08-20T02:33:18.656Z,16.13
2022-08-20T02:35:49.277Z,15.77
2022-08-20T02:38:17.311Z,16.27
2022-08-20T02:40:46.487Z,15.80
2022-08-20T02:43:14.552Z,16.03
2022-08-20T02:45:44.149Z,16.10
2022-08-20T02:48:21.409Z,15.43
2022-08-20T02:50:57.627Z,18.30
2022-08-20T02:53:26.260Z,15.77
2022-08-20T02:55:53.402Z,16.73
2022-08-20T02:58:21.617Z,16.73
2022-08-20T03:00:49.156Z,18.80
2022-08-20T03:03:22.342Z,19.00
2022-08-20T03:05:53.235Z,18.20
2022-08-20T03:08:22.005Z,18.33
2022-08-20T03:10:50.512Z,19.13
2022-08-20T03:13:18.685Z,20.77
2022-08-20T03:15:54.221Z,20.43
2022-08-20T03:18:28.569Z,20.87
2022-08-20T03:20:55.585Z,25.03
2022-08-20T03:23:23.206Z,23.97
2022-08-20T03:25:50.505Z,28.90
2022-08-20T03:28:19.493Z,23.23
2022-08-20T03:30:47.960Z,22.27
2022-08-20T03:33:16.317Z,24.80
2022-08-20T03:35:43.817Z,25.57
2022-08-20T03:38:14.346Z,26.63
2022-08-20T03:40:42.600Z,28.03
2022-08-20T03:43:10.321Z,25.90
2022-08-20T03:45:40.432Z,26.30
2022-08-20T03:48:09.276Z,29.17
2022-08-20T03:50:36.463Z,37.63
2022-08-20T03:53:04.686Z,29.73
2022-08-20T03:55:32.758Z,31.60
2022-08-20T03:58:04.267Z,26.47
2022-08-20T04:00:49.858Z,32.67
2022-08-20T04:03:17.946Z,37.33
2022-08-20T04:05:46.275Z,30.90
2022-08-20T04:08:22.192Z,36.87
2022-08-20T04:10:51.153Z,29.27
2022-08-20T04:13:20.980Z,33.50
2022-08-20T04:15:55.246Z,32.57
2022-08-20T04:18:25.757Z,36.53
2022-08-20T04:20:54.323Z,27.90
2022-08-20T04:23:22.580Z,30.63
2022-08-20T04:25:49.807Z,27.23
2022-08-20T04:28:30.106Z,32.17
2022-08-20T04:31:01.033Z,30.10
2022-08-20T04:33:34.204Z,26.70
2022-08-20T04:36:05.889Z,31.17
2022-08-20T04:38:47.957Z,27.90
2022-08-20T04:41:22.775Z,27.87
2022-08-20T04:43:55.989Z,27.67
2022-08-20T04:46:27.698Z,26.50
2022-08-20T04:48:56.616Z,26.17
2022-08-20T04:51:28.046Z,27.97
2022-08-20T04:53:57.392Z,25.80
2022-08-20T04:56:31.079Z,30.13
2022-08-20T04:59:01.465Z,30.20
2022-08-20T05:01:28.970Z,29.60
2022-08-20T05:03:57.858Z,28.23
2022-08-20T05:06:29.976Z,28.10
2022-08-20T05:09:00.301Z,25.90
2022-08-20T05:11:33.807Z,31.57
2022-08-20T05:14:03.926Z,31.63
2022-08-20T05:16:32.964Z,29.60
2022-08-20T05:18:59.973Z,26.40
2022-08-20T05:21:26.948Z,29.03
2022-08-20T05:23:54.000Z,31.67
2022-08-20T05:26:21.054Z,28.83
2022-08-20T05:28:58.024Z,25.47
2022-08-20T05:31:32.602Z,25.40
2022-08-20T05:34:12.516Z,25.13
2022-08-20T05:36:43.328Z,23.60
2022-08-20T05:39:11.129Z,29.53
2022-08-20T05:41:40.288Z,25.33
2022-08-20T05:44:13.215Z,24.90
2022-08-20T05:46:42.746Z,28.93
2022-08-20T05:49:20.845Z,28.03
2022-08-20T05:51:49.823Z,27.97
2022-08-20T05:54:16.893Z,31.33
2022-08-20T05:56:44.145Z,30.30
2022-08-20T05:59:12.615Z,31.67
2022-08-20T06:01:40.929Z,39.03
2022-08-20T06:04:32.045Z,41.23
2022-08-20T06:07:05.839Z,43.43
2022-08-20T06:09:35.068Z,26.20
2022-08-20T06:12:06.179Z,29.30
2022-08-20T06:14:33.757Z,26.00
2022-08-20T06:17:09.682Z,28.60
2022-08-20T06:19:38.259Z,31.80
2022-08-20T06:22:17.634Z,25.20
2022-08-20T06:24:47.827Z,32.03
2022-08-20T06:27:19.135Z,26.90
2022-08-20T06:29:46.388Z,29.97
2022-08-20T06:32:14.166Z,27.27
2022-08-20T06:34:50.243Z,25.83
2022-08-20T06:37:30.783Z,24.60
2022-08-20T06:40:07.287Z,58.33
2022-08-20T06:42:35.193Z,37.50
2022-08-20T06:45:05.743Z,40.10
2022-08-20T06:47:34.273Z,28.30
2022-08-20T06:50:01.382Z,30.00
2022-08-20T06:52:48.078Z,25.70
2022-08-20T06:55:17.530Z,24.33
2022-08-20T06:57:44.770Z,26.80
2022-08-20T07:00:19.437Z,29.53
2022-08-20T07:02:48.167Z,27.20
2022-08-20T07:05:16.432Z,24.97
2022-08-20T07:07:49.501Z,24.40
2022-08-20T07:10:22.439Z,26.67
2022-08-20T07:12:51.052Z,31.93
2022-08-20T07:15:21.928Z,23.60
2022-08-20T07:18:01.827Z,27.33
2022-08-20T07:20:31.977Z,25.03
2022-08-20T07:23:00.619Z,24.00
2022-08-20T07:25:29.425Z,28.73
2022-08-20T07:28:09.344Z,28.30
2022-08-20T07:30:55.867Z,31.67
2022-08-20T07:33:29.951Z,27.20
2022-08-20T07:35:59.040Z,25.73
2022-08-20T07:38:30.198Z,30.30
2022-08-20T07:41:05.299Z,26.27
2022-08-20T07:43:33.424Z,25.03
2022-08-20T07:46:03.136Z,31.93
2022-08-20T07:48:31.997Z,36.43
2022-08-20T07:51:06.336Z,42.93
2022-08-20T07:53:37.021Z,32.60
2022-08-20T07:56:11.754Z,30.73
2022-08-20T07:58:50.670Z,40.80
2022-08-20T08:01:26.187Z,35.50
2022-08-20T08:03:53.535Z,35.57
2022-08-20T08:06:29.793Z,29.97
2022-08-20T08:09:06.631Z,29.57
2022-08-20T08:11:37.962Z,33.33
2022-08-20T08:14:08.622Z,31.13
2022-08-20T08:16:37.479Z,34.17
2022-08-20T08:19:09.220Z,37.97
2022-08-20T08:21:36.215Z,40.43
2022-08-20T08:24:03.756Z,33.07
2022-08-20T08:26:30.828Z,32.93
2022-08-20T08:29:00.753Z,32.23
2022-08-20T08:31:27.820Z,30.87
2022-08-20T08:33:55.892Z,36.13
2022-08-20T08:36:22.868Z,39.17
2022-08-20T08:38:49.907Z,41.90
2022-08-20T08:41:30.095Z,34.93
2022-08-20T08:44:06.755Z,33.40
2022-08-20T08:46:40.655Z,43.30
2022-08-20T08:49:11.772Z,40.33
2022-08-20T08:51:46.302Z,37.00
2022-08-20T08:54:19.264Z,42.93
2022-08-20T08:56:49.937Z,42.10
2022-08-20T08:59:19.665Z,36.90
2022-08-20T09:01:57.310Z,35.53
2022-08-20T09:04:38.831Z,35.13
2022-08-20T09:07:11.015Z,38.90
2022-08-20T09:09:42.444Z,37.97
2022-08-20T09:12:20.352Z,35.27
2022-08-20T09:14:49.603Z,35.30
2022-08-20T09:17:19.896Z,29.67
2022-08-20T09:19:47.183Z,32.00
2022-08-20T09:22:21.678Z,31.33
2022-08-20T09:24:50.014Z,34.60
2022-08-20T09:27:17.292Z,35.33
2022-08-20T09:29:44.472Z,34.20
2022-08-20T09:32:21.006Z,40.87
2022-08-20T09:34:56.062Z,31.93
2022-08-20T09:37:27.198Z,33.83
2022-08-20T09:39:55.211Z,31.70
